sensor_id;sensor_type;location;lat;lon;timestamp;pressure;altitude;pressure_sealevel;temperature;humidity
5146;BME280;2591;48.144;15.152;2023-06-10T00:00:03;74891.84;;;-144.65;100.00
5146;BME280;2591;48.144;15.152;2023-06-10T00:02:34;74893.91;;;-144.65;100.00
5146;BME280;2591;48.144;15.152;2023-06-10T00:05:02;74893.91;;;-144.65;100.00
5146;BME280;2591;48.144;15.152;2023-06-10T00:07:30;74895.94;;;-144.65;100.00
5146;BME280;2591;48.144;15.152;2023-06-10T00:09:59;74900.00;;;-144.65;100.00
5146;BME280;2591;48.144;15.152;2023-06-10T00:12:29;74900.00;;;-144.65;100.00
5146;BME280;2591;48.144;15.152;2023-06-10T00:14:58;74912.22;;;-144.65;100.00
5146;BME280;2591;48.144;15.152;2023-06-10T00:17:25;74916.31;;;-144.65;100.00
5146;BME280;2591;48.144;15.152;2023-06-10T00:19:57;74924.47;;;-144.65;100.00
5146;BME280;2591;48.144;15.152;2023-06-10T00:22:25;74928.53;;;-144.65;100.00
5146;BME280;2591;48.144;15.152;2023-06-10T00:24:56;74934.66;;;-144.65;100.00
5146;BME280;2591;48.144;15.152;2023-06-10T00:27:24;74936.69;;;-144.65;100.00
5146;BME280;2591;48.144;15.152;2023-06-10T00:29:58;74942.81;;;-144.65;100.00
5146;BME280;2591;48.144;15.152;2023-06-10T00:32:26;74953.00;;;-144.65;100.00
5146;BME280;2591;48.144;15.152;2023-06-10T00:34:53;74955.03;;;-144.65;100.00
5146;BME280;2591;48.144;15.152;2023-06-10T00:37:23;74957.06;;;-144.65;100.00
5146;BME280;2591;48.144;15.152;2023-06-10T00:39:51;74957.06;;;-144.65;100.00
5146;BME280;2591;48.144;15.152;2023-06-10T00:42:18;74961.16;;;-144.65;100.00
5146;BME280;2591;48.144;15.152;2023-06-10T00:44:47;74965.22;;;-144.65;100.00
5146;BME280;2591;48.144;15.152;2023-06-10T00:47:15;74965.22;;;-144.65;100.00
5146;BME280;2591;48.144;15.152;2023-06-10T00:49:43;74961.16;;;-144.65;100.00
5146;BME280;2591;48.144;15.152;2023-06-10T00:52:12;74963.19;;;-144.65;100.00
5146;BME280;2591;48.144;15.152;2023-06-10T00:54:43;74957.06;;;-144.65;100.00
5146;BME280;2591;48.144;15.152;2023-06-10T00:57:12;74965.22;;;-144.65;100.00
5146;BME280;2591;48.144;15.152;2023-06-10T00:59:40;74967.25;;;-144.65;100.00
5146;BME280;2591;48.144;15.152;2023-06-10T01:02:09;74971.34;;;-144.65;100.00
5146;BME280;2591;48.144;15.152;2023-06-10T01:04:37;74977.47;;;-144.65;100.00
5146;BME280;2591;48.144;15.152;2023-06-10T01:07:11;74969.31;;;-144.65;100.00
5146;BME280;2591;48.144;15.152;2023-06-10T01:09:50;74965.22;;;-144.65;100.00
5146;BME280;2591;48.144;15.152;2023-06-10T01:12:28;74965.22;;;-144.65;100.00
5146;BME280;2591;48.144;15.152;2023-06-10T01:14:59;74961.16;;;-144.65;100.00
5146;BME280;2591;48.144;15.152;2023-06-10T01:17:28;74957.06;;;-144.65;100.00
5146;BME280;2591;48.144;15.152;2023-06-10T01:19:57;74961.16;;;-144.65;100.00
5146;BME280;2591;48.144;15.152;2023-06-10T01:22:27;74961.16;;;-144.65;100.00
5146;BME280;2591;48.144;15.152;2023-06-10T01:24:58;74957.06;;;-144.65;100.00
5146;BME280;2591;48.144;15.152;2023-06-10T01:27:30;74961.16;;;-144.65;100.00
5146;BME280;2591;48.144;15.152;2023-06-10T01:30:06;74957.06;;;-144.65;100.00
5146;BME280;2591;48.144;15.152;2023-06-10T01:32:38;74957.06;;;-144.65;100.00
5146;BME280;2591;48.144;15.152;2023-06-10T01:35:08;74953.00;;;-144.65;100.00
5146;BME280;2591;48.144;15.152;2023-06-10T01:37:39;74953.00;;;-144.65;100.00
5146;BME280;2591;48.144;15.152;2023-06-10T01:40:09;74961.16;;;-144.65;100.00
5146;BME280;2591;48.144;15.152;2023-06-10T01:42:38;74957.06;;;-144.65;100.00
5146;BME280;2591;48.144;15.152;2023-06-10T01:45:06;74950.97;;;-144.65;100.00
5146;BME280;2591;48.144;15.152;2023-06-10T01:47:35;74950.97;;;-144.65;100.00
5146;BME280;2591;48.144;15.152;2023-06-10T01:50:04;74950.97;;;-144.65;100.00
5146;BME280;2591;48.144;15.152;2023-06-10T01:52:32;74953.00;;;-144.65;100.00
5146;BME280;2591;48.144;15.152;2023-06-10T01:55:01;74959.13;;;-144.65;100.00
5146;BME280;2591;48.144;15.152;2023-06-10T01:57:29;74953.00;;;-144.65;100.00
5146;BME280;2591;48.144;15.152;2023-06-10T01:59:57;74953.00;;;-144.65;100.00
5146;BME280;2591;48.144;15.152;2023-06-10T02:02:25;74950.97;;;-144.65;100.00
5146;BME280;2591;48.144;15.152;2023-06-10T02:04:53;74953.00;;;-144.65;100.00
5146;BME280;2591;48.144;15.152;2023-06-10T02:07:20;74948.91;;;-144.65;100.00
5146;BME280;2591;48.144;15.152;2023-06-10T02:09:49;74944.84;;;-144.65;100.00
5146;BME280;2591;48.144;15.152;2023-06-10T02:12:18;74948.91;;;-144.65;100.00
5146;BME280;2591;48.144;15.152;2023-06-10T02:14:46;74948.91;;;-144.65;100.00
5146;BME280;2591;48.144;15.152;2023-06-10T02:17:14;74948.91;;;-144.65;100.00
5146;BME280;2591;48.144;15.152;2023-06-10T02:19:42;74953.00;;;-144.65;100.00
5146;BME280;2591;48.144;15.152;2023-06-10T02:22:10;74944.84;;;-144.65;100.00
5146;BME280;2591;48.144;15.152;2023-06-10T02:24:38;74940.78;;;-144.65;100.00
5146;BME280;2591;48.144;15.152;2023-06-10T02:27:06;74940.78;;;-144.65;100.00
5146;BME280;2591;48.144;15.152;2023-06-10T02:29:35;74932.63;;;-144.65;100.00
5146;BME280;2591;48.144;15.152;2023-06-10T02:32:04;74928.53;;;-144.65;100.00
5146;BME280;2591;48.144;15.152;2023-06-10T02:34:36;74924.47;;;-144.65;100.00
5146;BME280;2591;48.144;15.152;2023-06-10T02:37:04;74926.50;;;-144.65;100.00
5146;BME280;2591;48.144;15.152;2023-06-10T02:39:32;74928.53;;;-144.65;100.00
5146;BME280;2591;48.144;15.152;2023-06-10T02:41:59;74928.53;;;-144.65;100.00
5146;BME280;2591;48.144;15.152;2023-06-10T02:44:27;74928.53;;;-144.65;100.00
5146;BME280;2591;48.144;15.152;2023-06-10T02:46:57;74920.38;;;-144.65;100.00
5146;BME280;2591;48.144;15.152;2023-06-10T02:49:25;74922.44;;;-144.65;100.00
5146;BME280;2591;48.144;15.152;2023-06-10T02:51:54;74924.47;;;-144.65;100.00
5146;BME280;2591;48.144;15.152;2023-06-10T02:54:23;74920.38;;;-144.65;100.00
5146;BME280;2591;48.144;15.152;2023-06-10T02:56:52;74922.44;;;-144.65;100.00
5146;BME280;2591;48.144;15.152;2023-06-10T02:59:22;74924.47;;;-144.65;100.00
5146;BME280;2591;48.144;15.152;2023-06-10T03:01:50;74916.31;;;-144.65;100.00
5146;BME280;2591;48.144;15.152;2023-06-10T03:04:19;74924.47;;;-144.65;100.00
5146;BME280;2591;48.144;15.152;2023-06-10T03:06:47;74920.38;;;-144.65;100.00
5146;BME280;2591;48.144;15.152;2023-06-10T03:09:15;74932.63;;;-144.65;100.00
5146;BME280;2591;48.144;15.152;2023-06-10T03:11:43;74934.66;;;-144.65;100.00
5146;BME280;2591;48.144;15.152;2023-06-10T03:14:11;74932.63;;;-144.65;100.00
5146;BME280;2591;48.144;15.152;2023-06-10T03:16:39;74930.56;;;-144.65;100.00
5146;BME280;2591;48.144;15.152;2023-06-10T03:19:07;74932.63;;;-144.65;100.00
5146;BME280;2591;48.144;15.152;2023-06-10T03:21:37;74932.63;;;-144.65;100.00
5146;BME280;2591;48.144;15.152;2023-06-10T03:24:05;74918.34;;;-144.65;100.00
5146;BME280;2591;48.144;15.152;2023-06-10T03:26:33;74916.31;;;-144.65;100.00
5146;BME280;2591;48.144;15.152;2023-06-10T03:29:01;74914.28;;;-144.65;100.00
5146;BME280;2591;48.144;15.152;2023-06-10T03:31:29;74918.34;;;-144.65;100.00
5146;BME280;2591;48.144;15.152;2023-06-10T03:33:57;74914.28;;;-144.65;100.00
5146;BME280;2591;48.144;15.152;2023-06-10T03:36:25;74918.34;;;-144.65;100.00
5146;BME280;2591;48.144;15.152;2023-06-10T03:38:57;74920.38;;;-144.65;100.00
5146;BME280;2591;48.144;15.152;2023-06-10T03:41:24;74912.22;;;-144.65;100.00
5146;BME280;2591;48.144;15.152;2023-06-10T03:43:53;74920.38;;;-144.65;100.00
5146;BME280;2591;48.144;15.152;2023-06-10T03:46:21;74914.28;;;-144.65;100.00
5146;BME280;2591;48.144;15.152;2023-06-10T03:48:49;74912.22;;;-144.65;100.00
5146;BME280;2591;48.144;15.152;2023-06-10T03:51:17;74918.34;;;-144.65;100.00
5146;BME280;2591;48.144;15.152;2023-06-10T03:53:45;74912.22;;;-144.65;100.00
5146;BME280;2591;48.144;15.152;2023-06-10T03:56:14;74912.22;;;-144.65;100.00
5146;BME280;2591;48.144;15.152;2023-06-10T03:58:42;74912.22;;;-144.65;100.00
5146;BME280;2591;48.144;15.152;2023-06-10T04:01:13;74910.19;;;-144.65;100.00
5146;BME280;2591;48.144;15.152;2023-06-10T04:03:40;74908.16;;;-144.65;100.00
5146;BME280;2591;48.144;15.152;2023-06-10T04:06:10;74904.09;;;-144.65;100.00
5146;BME280;2591;48.144;15.152;2023-06-10T04:08:38;74904.09;;;-144.65;100.00
5146;BME280;2591;48.144;15.152;2023-06-10T04:11:07;74902.03;;;-144.65;100.00
5146;BME280;2591;48.144;15.152;2023-06-10T04:13:36;74897.97;;;-144.65;100.00
5146;BME280;2591;48.144;15.152;2023-06-10T04:16:05;74906.13;;;-144.65;100.00
5146;BME280;2591;48.144;15.152;2023-06-10T04:18:32;74897.97;;;-144.65;100.00
5146;BME280;2591;48.144;15.152;2023-06-10T04:21:00;74893.91;;;-144.65;100.00
5146;BME280;2591;48.144;15.152;2023-06-10T04:23:29;74891.84;;;-144.65;100.00
5146;BME280;2591;48.144;15.152;2023-06-10T04:25:57;74891.84;;;-144.65;100.00
5146;BME280;2591;48.144;15.152;2023-06-10T04:28:26;74891.84;;;-144.65;100.00
5146;BME280;2591;48.144;15.152;2023-06-10T04:30:55;74879.63;;;-144.65;100.00
5146;BME280;2591;48.144;15.152;2023-06-10T04:33:24;74879.63;;;-144.65;100.00
5146;BME280;2591;48.144;15.152;2023-06-10T04:35:52;74879.63;;;-144.65;100.00
5146;BME280;2591;48.144;15.152;2023-06-10T04:38:19;74883.69;;;-144.65;100.00
5146;BME280;2591;48.144;15.152;2023-06-10T04:40:48;74879.63;;;-144.65;100.00
5146;BME280;2591;48.144;15.152;2023-06-10T04:43:15;74883.69;;;-144.65;100.00
5146;BME280;2591;48.144;15.152;2023-06-10T04:45:43;74883.69;;;-144.65;100.00
5146;BME280;2591;48.144;15.152;2023-06-10T04:48:13;74867.41;;;-144.65;100.00
5146;BME280;2591;48.144;15.152;2023-06-10T04:50:42;74873.50;;;-144.65;100.00
5146;BME280;2591;48.144;15.152;2023-06-10T04:53:09;74871.47;;;-144.65;100.00
5146;BME280;2591;48.144;15.152;2023-06-10T04:55:37;74865.34;;;-144.65;100.00
5146;BME280;2591;48.144;15.152;2023-06-10T04:58:05;74859.25;;;-144.65;100.00
5146;BME280;2591;48.144;15.152;2023-06-10T05:00:33;74863.31;;;-144.65;100.00
5146;BME280;2591;48.144;15.152;2023-06-10T05:03:01;74863.31;;;-144.65;100.00
5146;BME280;2591;48.144;15.152;2023-06-10T05:05:31;74859.25;;;-144.65;100.00
5146;BME280;2591;48.144;15.152;2023-06-10T05:07:59;74863.31;;;-144.65;100.00
5146;BME280;2591;48.144;15.152;2023-06-10T05:10:27;74859.25;;;-144.65;100.00
5146;BME280;2591;48.144;15.152;2023-06-10T05:12:59;74857.22;;;-144.65;100.00
5146;BME280;2591;48.144;15.152;2023-06-10T05:15:27;74855.16;;;-144.65;100.00
5146;BME280;2591;48.144;15.152;2023-06-10T05:17:56;74847.00;;;-144.65;100.00
5146;BME280;2591;48.144;15.152;2023-06-10T05:20:24;74840.91;;;-144.65;100.00
5146;BME280;2591;48.144;15.152;2023-06-10T05:22:55;74842.94;;;-144.65;100.00
5146;BME280;2591;48.144;15.152;2023-06-10T05:25:22;74844.97;;;-144.65;100.00
5146;BME280;2591;48.144;15.152;2023-06-10T05:27:50;74842.94;;;-144.65;100.00
5146;BME280;2591;48.144;15.152;2023-06-10T05:30:18;74836.81;;;-144.65;100.00
5146;BME280;2591;48.144;15.152;2023-06-10T05:32:46;74834.78;;;-144.65;100.00
5146;BME280;2591;48.144;15.152;2023-06-10T05:35:14;74838.88;;;-144.65;100.00
5146;BME280;2591;48.144;15.152;2023-06-10T05:37:42;74834.78;;;-144.65;100.00
5146;BME280;2591;48.144;15.152;2023-06-10T05:40:12;74838.88;;;-144.65;100.00
5146;BME280;2591;48.144;15.152;2023-06-10T05:42:40;74836.81;;;-144.65;100.00
5146;BME280;2591;48.144;15.152;2023-06-10T05:45:09;74840.91;;;-144.65;100.00
5146;BME280;2591;48.144;15.152;2023-06-10T05:47:37;74847.00;;;-144.65;100.00
5146;BME280;2591;48.144;15.152;2023-06-10T05:50:06;74847.00;;;-144.65;100.00
5146;BME280;2591;48.144;15.152;2023-06-10T05:52:36;74842.94;;;-144.65;100.00
5146;BME280;2591;48.144;15.152;2023-06-10T05:55:07;74847.00;;;-144.65;100.00
5146;BME280;2591;48.144;15.152;2023-06-10T05:57:37;74851.09;;;-144.65;100.00
5146;BME280;2591;48.144;15.152;2023-06-10T06:00:06;74859.25;;;-144.65;100.00
5146;BME280;2591;48.144;15.152;2023-06-10T06:02:34;74867.41;;;-144.65;100.00
5146;BME280;2591;48.144;15.152;2023-06-10T06:05:02;74869.44;;;-144.65;100.00
5146;BME280;2591;48.144;15.152;2023-06-10T06:07:30;74871.47;;;-144.65;100.00
5146;BME280;2591;48.144;15.152;2023-06-10T06:09:58;74875.56;;;-144.65;100.00
5146;BME280;2591;48.144;15.152;2023-06-10T06:12:26;74883.69;;;-144.65;100.00
5146;BME280;2591;48.144;15.152;2023-06-10T06:14:55;74885.75;;;-144.65;100.00
5146;BME280;2591;48.144;15.152;2023-06-10T06:17:23;74887.78;;;-144.65;100.00
5146;BME280;2591;48.144;15.152;2023-06-10T06:19:51;74891.84;;;-144.65;100.00
5146;BME280;2591;48.144;15.152;2023-06-10T06:22:19;74879.63;;;-144.65;100.00
5146;BME280;2591;48.144;15.152;2023-06-10T06:24:49;74875.56;;;-144.65;100.00
5146;BME280;2591;48.144;15.152;2023-06-10T06:27:17;74875.56;;;-144.65;100.00
5146;BME280;2591;48.144;15.152;2023-06-10T06:29:45;74875.56;;;-144.65;100.00
5146;BME280;2591;48.144;15.152;2023-06-10T06:32:15;74867.41;;;-144.65;100.00
5146;BME280;2591;48.144;15.152;2023-06-10T06:34:43;74869.44;;;-144.65;100.00
5146;BME280;2591;48.144;15.152;2023-06-10T06:37:11;74857.22;;;-144.65;100.00
5146;BME280;2591;48.144;15.152;2023-06-10T06:39:39;74853.13;;;-144.65;100.00
5146;BME280;2591;48.144;15.152;2023-06-10T06:42:07;74865.34;;;-144.65;100.00
5146;BME280;2591;48.144;15.152;2023-06-10T06:44:35;74875.56;;;-144.65;100.00
5146;BME280;2591;48.144;15.152;2023-06-10T06:47:03;74859.25;;;-144.65;100.00
5146;BME280;2591;48.144;15.152;2023-06-10T06:49:32;74857.22;;;-144.65;100.00
5146;BME280;2591;48.144;15.152;2023-06-10T06:52:00;74847.00;;;-144.65;100.00
5146;BME280;2591;48.144;15.152;2023-06-10T06:54:28;74851.09;;;-144.65;100.00
5146;BME280;2591;48.144;15.152;2023-06-10T06:56:57;74844.97;;;-144.65;100.00
5146;BME280;2591;48.144;15.152;2023-06-10T06:59:24;74851.09;;;-144.65;100.00
5146;BME280;2591;48.144;15.152;2023-06-10T07:01:53;74849.06;;;-144.65;100.00
5146;BME280;2591;48.144;15.152;2023-06-10T07:04:21;74857.22;;;-144.65;100.00
5146;BME280;2591;48.144;15.152;2023-06-10T07:06:50;74857.22;;;-144.65;100.00
5146;BME280;2591;48.144;15.152;2023-06-10T07:09:18;74859.25;;;-144.65;100.00
5146;BME280;2591;48.144;15.152;2023-06-10T07:11:46;74851.09;;;-144.65;100.00
5146;BME280;2591;48.144;15.152;2023-06-10T07:14:14;74855.16;;;-144.65;100.00
5146;BME280;2591;48.144;15.152;2023-06-10T07:16:42;74838.88;;;-144.65;100.00
5146;BME280;2591;48.144;15.152;2023-06-10T07:19:11;74840.91;;;-144.65;100.00
5146;BME280;2591;48.144;15.152;2023-06-10T07:21:40;74834.78;;;-144.65;100.00
5146;BME280;2591;48.144;15.152;2023-06-10T07:24:09;74830.72;;;-144.65;100.00
5146;BME280;2591;48.144;15.152;2023-06-10T07:26:37;74822.56;;;-144.65;100.00
5146;BME280;2591;48.144;15.152;2023-06-10T07:29:05;74810.34;;;-144.65;100.00
5146;BME280;2591;48.144;15.152;2023-06-10T07:31:33;74802.19;;;-144.65;100.00
5146;BME280;2591;48.144;15.152;2023-06-10T07:34:01;74802.19;;;-144.65;100.00
5146;BME280;2591;48.144;15.152;2023-06-10T07:36:29;74800.16;;;-144.65;100.00
5146;BME280;2591;48.144;15.152;2023-06-10T07:38:57;74789.94;;;-144.65;100.00
5146;BME280;2591;48.144;15.152;2023-06-10T07:41:26;74781.81;;;-144.65;100.00
5146;BME280;2591;48.144;15.152;2023-06-10T07:43:54;74773.66;;;-144.65;100.00
5146;BME280;2591;48.144;15.152;2023-06-10T07:46:23;74773.66;;;-144.65;100.00
5146;BME280;2591;48.144;15.152;2023-06-10T07:48:51;74769.56;;;-144.65;100.00
5146;BME280;2591;48.144;15.152;2023-06-10T07:51:19;74755.31;;;-144.65;100.00
5146;BME280;2591;48.144;15.152;2023-06-10T07:53:48;74757.34;;;-144.65;100.00
5146;BME280;2591;48.144;15.152;2023-06-10T07:56:16;74757.34;;;-144.65;100.00
5146;BME280;2591;48.144;15.152;2023-06-10T07:58:45;74741.03;;;-144.65;100.00
5146;BME280;2591;48.144;15.152;2023-06-10T08:01:13;74732.88;;;-144.65;100.00
5146;BME280;2591;48.144;15.152;2023-06-10T08:03:41;74728.81;;;-144.65;100.00
5146;BME280;2591;48.144;15.152;2023-06-10T08:06:10;74724.75;;;-144.65;100.00
5146;BME280;2591;48.144;15.152;2023-06-10T08:08:38;74712.50;;;-144.65;100.00
5146;BME280;2591;48.144;15.152;2023-06-10T08:11:11;74724.75;;;-144.65;100.00
5146;BME280;2591;48.144;15.152;2023-06-10T08:13:39;74714.53;;;-144.65;100.00
5146;BME280;2591;48.144;15.152;2023-06-10T08:16:08;74710.47;;;-144.65;100.00
5146;BME280;2591;48.144;15.152;2023-06-10T08:18:36;74700.28;;;-144.65;100.00
5146;BME280;2591;48.144;15.152;2023-06-10T08:21:04;74696.19;;;-144.65;100.00
5146;BME280;2591;48.144;15.152;2023-06-10T08:23:32;74671.75;;;-144.65;100.00
5146;BME280;2591;48.144;15.152;2023-06-10T08:26:00;74667.69;;;-144.65;100.00
5146;BME280;2591;48.144;15.152;2023-06-10T08:28:28;74663.59;;;-144.65;100.00
5146;BME280;2591;48.144;15.152;2023-06-10T08:30:56;74655.44;;;-144.65;100.00
5146;BME280;2591;48.144;15.152;2023-06-10T08:33:26;74651.38;;;-144.65;100.00
5146;BME280;2591;48.144;15.152;2023-06-10T08:35:53;74655.44;;;-144.65;100.00
5146;BME280;2591;48.144;15.152;2023-06-10T08:38:21;74641.19;;;-144.65;100.00
5146;BME280;2591;48.144;15.152;2023-06-10T08:40:50;74635.06;;;-144.65;100.00
5146;BME280;2591;48.144;15.152;2023-06-10T08:43:26;74639.13;;;-144.65;100.00
5146;BME280;2591;48.144;15.152;2023-06-10T08:46:00;74614.69;;;-144.65;100.00
5146;BME280;2591;48.144;15.152;2023-06-10T08:48:30;74616.72;;;-144.65;100.00
5146;BME280;2591;48.144;15.152;2023-06-10T08:50:59;74618.75;;;-144.65;100.00
5146;BME280;2591;48.144;15.152;2023-06-10T08:53:29;74618.75;;;-144.65;100.00
5146;BME280;2591;48.144;15.152;2023-06-10T08:56:00;74616.72;;;-144.65;100.00
5146;BME280;2591;48.144;15.152;2023-06-10T08:58:31;74616.72;;;-144.65;100.00
5146;BME280;2591;48.144;15.152;2023-06-10T09:01:02;74602.47;;;-144.65;100.00
5146;BME280;2591;48.144;15.152;2023-06-10T09:03:32;74606.53;;;-144.65;100.00
5146;BME280;2591;48.144;15.152;2023-06-10T09:06:03;74598.38;;;-144.65;100.00
5146;BME280;2591;48.144;15.152;2023-06-10T09:08:33;74602.47;;;-144.65;100.00
5146;BME280;2591;48.144;15.152;2023-06-10T09:11:01;74582.09;;;-144.65;100.00
5146;BME280;2591;48.144;15.152;2023-06-10T09:13:29;74573.94;;;-144.65;100.00
5146;BME280;2591;48.144;15.152;2023-06-10T09:15:57;74563.75;;;-144.65;100.00
5146;BME280;2591;48.144;15.152;2023-06-10T09:18:27;74549.47;;;-144.65;100.00
5146;BME280;2591;48.144;15.152;2023-06-10T09:20:57;74529.09;;;-144.65;100.00
5146;BME280;2591;48.144;15.152;2023-06-10T09:23:25;74529.09;;;-144.65;100.00
5146;BME280;2591;48.144;15.152;2023-06-10T09:25:56;74541.31;;;-144.65;100.00
5146;BME280;2591;48.144;15.152;2023-06-10T09:28:24;74545.41;;;-144.65;100.00
5146;BME280;2591;48.144;15.152;2023-06-10T09:31:02;74557.63;;;-144.65;100.00
5146;BME280;2591;48.144;15.152;2023-06-10T09:33:31;74573.94;;;-144.65;100.00
5146;BME280;2591;48.144;15.152;2023-06-10T09:36:01;74582.09;;;-144.65;100.00
5146;BME280;2591;48.144;15.152;2023-06-10T09:38:30;74582.09;;;-144.65;100.00
5146;BME280;2591;48.144;15.152;2023-06-10T09:40:58;74590.22;;;-144.65;100.00
5146;BME280;2591;48.144;15.152;2023-06-10T09:43:41;74580.03;;;-144.65;100.00
5146;BME280;2591;48.144;15.152;2023-06-10T09:46:16;74569.84;;;-144.65;100.00
5146;BME280;2591;48.144;15.152;2023-06-10T09:48:46;74567.81;;;-144.65;100.00
5146;BME280;2591;48.144;15.152;2023-06-10T09:51:15;74569.84;;;-144.65;100.00
5146;BME280;2591;48.144;15.152;2023-06-10T09:53:47;74553.56;;;-144.65;100.00
5146;BME280;2591;48.144;15.152;2023-06-10T09:56:15;74508.72;;;-144.65;100.00
5146;BME280;2591;48.144;15.152;2023-06-10T09:58:44;74443.50;;;-144.65;100.00
5146;BME280;2591;48.144;15.152;2023-06-10T10:01:14;74390.53;;;-144.65;100.00
5146;BME280;2591;48.144;15.152;2023-06-10T10:03:44;74349.78;;;-144.65;99.79
5146;BME280;2591;48.144;15.152;2023-06-10T10:06:14;74345.69;;;-144.65;94.10
5146;BME280;2591;48.144;15.152;2023-06-10T10:08:43;74349.78;;;-144.65;91.57
5146;BME280;2591;48.144;15.152;2023-06-10T10:11:11;74370.16;;;-144.65;94.26
5146;BME280;2591;48.144;15.152;2023-06-10T10:13:40;74382.38;;;-144.65;94.73
5146;BME280;2591;48.144;15.152;2023-06-10T10:16:11;74433.31;;;-144.65;93.05
5146;BME280;2591;48.144;15.152;2023-06-10T10:18:43;74443.50;;;-144.65;94.34
5146;BME280;2591;48.144;15.152;2023-06-10T10:21:12;74435.34;;;-144.65;94.84
5146;BME280;2591;48.144;15.152;2023-06-10T10:23:47;74410.91;;;-144.65;92.75
5146;BME280;2591;48.144;15.152;2023-06-10T10:26:17;74410.91;;;-144.65;90.05
5146;BME280;2591;48.144;15.152;2023-06-10T10:28:51;74384.41;;;-144.65;94.56
5146;BME280;2591;48.144;15.152;2023-06-10T10:31:21;74357.91;;;-144.65;96.66
5146;BME280;2591;48.144;15.152;2023-06-10T10:33:54;74366.06;;;-144.65;91.94
5146;BME280;2591;48.144;15.152;2023-06-10T10:36:24;74362.00;;;-144.65;94.54
5146;BME280;2591;48.144;15.152;2023-06-10T10:38:54;74355.88;;;-144.65;91.52
5146;BME280;2591;48.144;15.152;2023-06-10T10:41:23;74345.69;;;-144.65;92.05
5146;BME280;2591;48.144;15.152;2023-06-10T10:43:53;74298.81;;;-144.65;91.64
5146;BME280;2591;48.144;15.152;2023-06-10T10:46:22;74239.72;;;-144.65;91.09
5146;BME280;2591;48.144;15.152;2023-06-10T10:48:52;74207.13;;;-144.65;88.26
5146;BME280;2591;48.144;15.152;2023-06-10T10:51:22;74207.13;;;-144.65;85.46
5146;BME280;2591;48.144;15.152;2023-06-10T10:54:11;74215.28;;;-144.65;83.47
5146;BME280;2591;48.144;15.152;2023-06-10T10:57:09;74186.75;;;-144.65;86.17
5146;BME280;2591;48.144;15.152;2023-06-10T10:59:46;74143.97;;;-144.65;81.19
5146;BME280;2591;48.144;15.152;2023-06-10T11:02:35;74099.13;;;-144.65;78.73
5146;BME280;2591;48.144;15.152;2023-06-10T11:05:07;74111.34;;;-144.65;77.66
5146;BME280;2591;48.144;15.152;2023-06-10T11:07:36;74121.56;;;-144.65;77.53
5146;BME280;2591;48.144;15.152;2023-06-10T11:10:08;74158.22;;;-144.65;78.31
5146;BME280;2591;48.144;15.152;2023-06-10T11:12:58;74194.91;;;-144.65;78.27
5146;BME280;2591;48.144;15.152;2023-06-10T11:15:27;74227.50;;;-144.65;80.26
5146;BME280;2591;48.144;15.152;2023-06-10T11:18:12;74239.72;;;-144.65;81.95
5146;BME280;2591;48.144;15.152;2023-06-10T11:20:45;74247.88;;;-144.65;81.89
5146;BME280;2591;48.144;15.152;2023-06-10T11:23:40;74249.91;;;-144.65;80.83
5146;BME280;2591;48.144;15.152;2023-06-10T11:26:18;74229.53;;;-144.65;83.47
5146;BME280;2591;48.144;15.152;2023-06-10T11:29:05;74205.09;;;-144.65;81.18
5146;BME280;2591;48.144;15.152;2023-06-10T11:31:40;74172.50;;;-144.65;83.67
5146;BME280;2591;48.144;15.152;2023-06-10T11:34:09;74186.75;;;-144.65;79.28
5146;BME280;2591;48.144;15.152;2023-06-10T11:36:38;74194.91;;;-144.65;81.81
5146;BME280;2591;48.144;15.152;2023-06-10T11:39:09;74219.34;;;-144.65;82.11
5146;BME280;2591;48.144;15.152;2023-06-10T11:41:39;74239.72;;;-144.65;81.78
5146;BME280;2591;48.144;15.152;2023-06-10T11:44:09;74237.69;;;-144.65;83.36
5146;BME280;2591;48.144;15.152;2023-06-10T11:46:37;74233.63;;;-144.65;85.07
5146;BME280;2591;48.144;15.152;2023-06-10T11:49:06;74243.81;;;-144.65;82.73
5146;BME280;2591;48.144;15.152;2023-06-10T11:51:35;74251.97;;;-144.65;84.97
5146;BME280;2591;48.144;15.152;2023-06-10T11:54:04;74227.50;;;-144.65;86.55
5146;BME280;2591;48.144;15.152;2023-06-10T11:56:32;74203.06;;;-144.65;81.65
5146;BME280;2591;48.144;15.152;2023-06-10T11:59:03;74192.88;;;-144.65;80.81
5146;BME280;2591;48.144;15.152;2023-06-10T12:01:34;74205.09;;;-144.65;80.88
5146;BME280;2591;48.144;15.152;2023-06-10T12:04:07;74182.69;;;-144.65;81.93
5146;BME280;2591;48.144;15.152;2023-06-10T12:06:42;74123.59;;;-144.65;80.54
5146;BME280;2591;48.144;15.152;2023-06-10T12:09:19;74062.47;;;-144.65;77.58
5146;BME280;2591;48.144;15.152;2023-06-10T12:11:51;74038.00;;;-144.65;77.05
5146;BME280;2591;48.144;15.152;2023-06-10T12:14:52;74003.38;;;-144.65;74.51
5146;BME280;2591;48.144;15.152;2023-06-10T12:17:35;74031.91;;;-144.65;72.67
5146;BME280;2591;48.144;15.152;2023-06-10T12:20:05;74064.50;;;-144.65;73.55
5146;BME280;2591;48.144;15.152;2023-06-10T12:22:38;74062.47;;;-144.65;74.00
5146;BME280;2591;48.144;15.152;2023-06-10T12:25:07;74097.09;;;-144.65;72.96
5146;BME280;2591;48.144;15.152;2023-06-10T12:27:38;74105.25;;;-144.65;74.45
5146;BME280;2591;48.144;15.152;2023-06-10T12:30:07;74141.94;;;-144.65;71.70
5146;BME280;2591;48.144;15.152;2023-06-10T12:32:38;74141.94;;;-144.65;74.95
5146;BME280;2591;48.144;15.152;2023-06-10T12:35:07;74095.06;;;-144.65;74.87
5146;BME280;2591;48.144;15.152;2023-06-10T12:37:35;74084.88;;;-144.65;71.39
5146;BME280;2591;48.144;15.152;2023-06-10T12:40:10;74103.22;;;-144.65;72.18
5146;BME280;2591;48.144;15.152;2023-06-10T12:42:38;74097.09;;;-144.65;73.03
5146;BME280;2591;48.144;15.152;2023-06-10T12:45:08;74099.13;;;-144.65;72.91
5146;BME280;2591;48.144;15.152;2023-06-10T12:47:37;74060.41;;;-144.65;72.10
5146;BME280;2591;48.144;15.152;2023-06-10T12:50:07;74050.22;;;-144.65;73.54
5146;BME280;2591;48.144;15.152;2023-06-10T12:52:35;74099.13;;;-144.65;72.32
5146;BME280;2591;48.144;15.152;2023-06-10T12:55:04;74121.56;;;-144.65;72.96